createdAt,value
2023-04-22T00:01:07.917Z,25.33
2023-04-22T00:03:45.822Z,27.27
2023-04-22T00:06:18.780Z,30.23
2023-04-22T00:08:56.538Z,21.87
2023-04-22T00:11:29.242Z,22.83
2023-04-22T00:14:08.482Z,25.60
2023-04-22T00:16:46.995Z,29.45
2023-04-22T00:19:24.430Z,24.75
2023-04-22T00:21:54.614Z,24.83
2023-04-22T00:24:30.137Z,24.08
2023-04-22T00:27:12.619Z,21.40
2023-04-22T00:29:55.876Z,24.20
2023-04-22T00:32:35.461Z,32.75
2023-04-22T00:35:13.894Z,25.52
2023-04-22T00:37:55.241Z,24.70
2023-04-22T00:40:28.092Z,22.35
2023-04-22T00:43:08.600Z,25.03
2023-04-22T00:45:47.623Z,31.45
2023-04-22T00:48:30.877Z,33.35
2023-04-22T00:51:09.602Z,33.88
2023-04-22T00:53:51.089Z,33.72
2023-04-22T00:56:26.630Z,27.95
2023-04-22T00:59:13.796Z,33.53
2023-04-22T01:01:48.949Z,29.00
2023-04-22T01:04:31.139Z,31.05
2023-04-22T01:07:07.461Z,35.40
2023-04-22T01:09:44.349Z,33.60
2023-04-22T01:12:31.876Z,32.78
2023-04-22T01:15:05.228Z,36.63
2023-04-22T01:17:46.075Z,32.20
2023-04-22T01:20:26.823Z,33.53
2023-04-22T01:23:14.340Z,36.08
2023-04-22T01:25:53.718Z,29.65
2023-04-22T01:28:29.611Z,36.95
2023-04-22T01:30:59.805Z,36.85
2023-04-22T01:33:35.617Z,25.63
2023-04-22T01:36:18.449Z,29.42
2023-04-22T01:39:06.227Z,28.40
2023-04-22T01:41:39.826Z,31.52
2023-04-22T01:44:19.899Z,27.40
2023-04-22T01:47:05.384Z,23.50
2023-04-22T01:49:43.253Z,28.13
2023-04-22T01:52:16.302Z,28.90
2023-04-22T01:54:51.481Z,27.33
2023-04-22T01:57:31.989Z,26.58
2023-04-22T02:02:54.915Z,28.95
2023-04-22T02:05:34.474Z,29.10
2023-04-22T02:08:12.359Z,26.42
2023-04-22T02:11:00.591Z,31.02
2023-04-22T02:13:47.671Z,31.77
2023-04-22T02:16:35.273Z,38.20
2023-04-22T02:19:12.235Z,40.70
2023-04-22T02:21:49.577Z,61.08
2023-04-22T02:24:30.180Z,51.78
2023-04-22T02:27:09.995Z,46.47
2023-04-22T02:29:46.153Z,41.53
2023-04-22T02:32:34.213Z,38.17
2023-04-22T02:35:27.177Z,34.47
2023-04-22T02:38:11.568Z,31.02
2023-04-22T02:40:53.609Z,28.00
2023-04-22T02:43:34.232Z,26.20
2023-04-22T02:46:18.620Z,27.10
2023-04-22T02:48:58.969Z,25.58
2023-04-22T02:51:39.156Z,27.27
2023-04-22T02:54:12.007Z,21.90
2023-04-22T02:56:44.735Z,25.08
2023-04-22T02:59:25.663Z,22.73
2023-04-22T03:02:00.507Z,25.35
2023-04-22T03:04:48.014Z,27.77
2023-04-22T03:07:24.959Z,24.80
2023-04-22T03:10:06.458Z,26.80
2023-04-22T03:12:49.119Z,25.40
2023-04-22T03:15:30.362Z,29.10
2023-04-22T03:18:05.977Z,34.50
2023-04-22T03:20:44.026Z,31.35
2023-04-22T03:23:33.713Z,31.38
2023-04-22T03:26:09.077Z,38.25
2023-04-22T03:28:51.946Z,42.33
2023-04-22T03:31:29.865Z,36.72
2023-04-22T03:34:13.198Z,36.50
2023-04-22T03:36:55.299Z,34.25
2023-04-22T03:39:32.757Z,38.42
2023-04-22T03:42:15.152Z,45.00
2023-04-22T03:45:01.407Z,40.58
2023-04-22T03:47:50.912Z,35.92
2023-04-22T03:50:30.621Z,40.00
2023-04-22T03:53:15.092Z,37.45
2023-04-22T03:55:55.378Z,40.72
2023-04-22T03:58:38.701Z,39.08
2023-04-22T04:01:24.688Z,39.92
2023-04-22T04:04:07.798Z,48.40
2023-04-22T04:07:03.887Z,40.63
2023-04-22T04:09:39.479Z,42.95
2023-04-22T04:12:26.526Z,44.25
2023-04-22T04:15:04.557Z,52.38
2023-04-22T04:17:46.205Z,46.40
2023-04-22T04:20:22.499Z,46.58
2023-04-22T04:23:08.081Z,51.28
2023-04-22T04:25:47.954Z,49.20
2023-04-22T04:28:32.381Z,49.47
2023-04-22T04:31:09.603Z,43.28
2023-04-22T04:33:46.780Z,42.75
2023-04-22T04:36:29.402Z,45.65
2023-04-22T04:39:18.989Z,47.60
2023-04-22T04:42:15.493Z,44.92
2023-04-22T04:45:04.492Z,45.47
2023-04-22T04:47:54.835Z,48.75
2023-04-22T04:50:44.512Z,49.47
2023-04-22T04:53:25.698Z,53.67
2023-04-22T04:55:58.523Z,48.42
2023-04-22T04:58:38.395Z,44.58
2023-04-22T05:01:41.454Z,44.42
2023-04-22T05:04:29.797Z,44.13
2023-04-22T05:07:13.439Z,34.38
2023-04-22T05:10:00.762Z,28.20
2023-04-22T05:12:41.374Z,27.90
2023-04-22T05:15:29.316Z,24.73
2023-04-22T05:18:07.929Z,24.33
2023-04-22T05:20:51.243Z,26.48
2023-04-22T05:23:31.430Z,24.50
2023-04-22T05:26:09.268Z,22.05
2023-04-22T05:28:54.003Z,28.30
2023-04-22T05:31:36.634Z,21.77
2023-04-22T05:34:16.623Z,21.10
2023-04-22T05:37:00.814Z,21.90
2023-04-22T05:39:39.834Z,23.65
2023-04-22T05:42:20.579Z,20.25
2023-04-22T05:45:03.091Z,18.17
2023-04-22T05:47:40.940Z,23.17
2023-04-22T05:50:22.808Z,17.15
2023-04-22T05:53:12.741Z,21.10
2023-04-22T05:55:49.461Z,17.90
2023-04-22T05:58:24.342Z,13.77
2023-04-22T06:01:07.333Z,17.30
2023-04-22T06:04:12.665Z,15.23
2023-04-22T06:06:48.198Z,13.15
2023-04-22T06:09:31.423Z,15.80
2023-04-22T06:12:02.256Z,13.73
2023-04-22T06:14:41.215Z,17.80
2023-04-22T06:17:17.396Z,11.88
2023-04-22T06:19:53.464Z,12.35
2023-04-22T06:22:30.590Z,13.90
2023-04-22T06:25:05.939Z,9.63
2023-04-22T06:27:38.682Z,15.70
2023-04-22T06:30:19.798Z,12.52
2023-04-22T06:32:55.544Z,15.68
2023-04-22T06:35:36.430Z,11.98
2023-04-22T06:38:20.619Z,14.32
2023-04-22T06:41:13.676Z,10.93
2023-04-22T06:43:57.342Z,13.05
2023-04-22T06:46:59.983Z,13.88
2023-04-22T06:49:56.495Z,11.63
2023-04-22T06:52:34.487Z,12.30
2023-04-22T06:55:08.607Z,12.65
2023-04-22T06:57:46.714Z,11.82
2023-04-22T07:00:40.458Z,12.80
2023-04-22T07:03:21.413Z,15.50
2023-04-22T07:06:06.429Z,15.15
2023-04-22T07:08:47.012Z,10.48
2023-04-22T07:11:24.260Z,7.95
2023-04-22T07:14:08.613Z,13.98
2023-04-22T07:16:42.934Z,10.70
2023-04-22T07:19:23.968Z,9.95
2023-04-22T07:22:05.031Z,8.82
2023-04-22T07:24:38.673Z,7.97
2023-04-22T07:29:47.821Z,11.27
2023-04-22T07:32:26.264Z,8.40
2023-04-22T07:35:07.191Z,8.77
2023-04-22T07:37:45.953Z,9.48
2023-04-22T07:40:24.244Z,9.50
2023-04-22T07:43:05.087Z,10.32
2023-04-22T07:45:43.978Z,11.25
2023-04-22T07:48:27.510Z,12.95
2023-04-22T07:51:02.768Z,12.13
2023-04-22T07:53:46.251Z,12.98
2023-04-22T07:56:21.425Z,11.23
2023-04-22T07:58:56.585Z,15.40
2023-04-22T08:01:32.191Z,10.75
2023-04-22T08:04:11.086Z,17.83
2023-04-22T08:06:52.186Z,12.13
2023-04-22T08:09:27.426Z,12.40
2023-04-22T08:12:08.696Z,10.20
2023-04-22T08:14:49.935Z,9.30
2023-04-22T08:17:33.812Z,14.95
2023-04-22T08:20:08.190Z,6.97
2023-04-22T08:22:44.565Z,7.90
2023-04-22T08:25:17.438Z,15.82
2023-04-22T08:27:55.692Z,9.73
2023-04-22T08:30:46.454Z,8.40
2023-04-22T08:33:19.441Z,14.27
2023-04-22T08:35:59.696Z,13.35
2023-04-22T08:38:32.099Z,13.40
2023-04-22T08:41:03.826Z,12.45
2023-04-22T08:43:39.427Z,9.73
2023-04-22T08:46:17.897Z,9.43
2023-04-22T08:49:04.117Z,13.18
2023-04-22T08:51:40.846Z,11.52
2023-04-22T08:54:19.626Z,11.27
2023-04-22T08:57:03.198Z,9.23
2023-04-22T08:59:42.733Z,13.45
2023-04-22T09:02:19.505Z,7.28
2023-04-22T09:05:03.713Z,8.45
2023-04-22T09:07:42.231Z,10.48
2023-04-22T09:10:22.316Z,9.02
2023-04-22T09:12:58.726Z,9.27
2023-04-22T09:15:35.990Z,10.40
2023-04-22T09:18:05.671Z,8.07
2023-04-22T09:20:35.404Z,7.90
2023-04-22T09:23:10.546Z,7.22
2023-04-22T09:25:47.884Z,8.10
2023-04-22T09:28:23.528Z,7.70
2023-04-22T09:31:00.540Z,7.28
2023-04-22T09:33:31.492Z,9.00
2023-04-22T09:36:15.020Z,8.10
2023-04-22T09:39:04.579Z,11.15
2023-04-22T09:41:46.036Z,6.57
2023-04-22T09:46:57.634Z,14.57
2023-04-22T09:49:31.283Z,7.18
2023-04-22T09:54:55.040Z,6.53
2023-04-22T09:57:29.685Z,15.70
2023-04-22T10:00:10.542Z,8.45
2023-04-22T10:02:46.703Z,10.45
2023-04-22T10:05:30.780Z,9.60
2023-04-22T10:08:09.690Z,10.52
2023-04-22T10:10:40.562Z,11.88
2023-04-22T10:13:13.666Z,12.63
2023-04-22T10:15:52.637Z,9.95
2023-04-22T10:18:33.994Z,10.70
2023-04-22T10:21:13.142Z,8.85
2023-04-22T10:23:53.407Z,9.63
2023-04-22T10:27:10.841Z,9.93
2023-04-22T10:29:45.922Z,9.75
2023-04-22T10:32:27.973Z,10.88
2023-04-22T10:35:14.485Z,8.25
2023-04-22T10:37:49.753Z,5.35
2023-04-22T10:40:27.787Z,9.73
2023-04-22T10:43:04.715Z,6.65
2023-04-22T10:45:40.268Z,8.52
2023-04-22T10:48:13.276Z,18.65
2023-04-22T10:50:48.102Z,11.07
2023-04-22T10:53:40.810Z,8.80
2023-04-22T10:56:19.514Z,8.13
2023-04-22T10:59:06.201Z,8.73
2023-04-22T11:01:50.121Z,6.40
2023-04-22T11:07:20.728Z,10.02
2023-04-22T11:10:01.146Z,13.85
2023-04-22T11:12:43.670Z,10.77
2023-04-22T11:15:26.339Z,12.02
2023-04-22T11:18:02.185Z,7.82
2023-04-22T11:20:42.215Z,18.08
2023-04-22T11:23:23.681Z,12.27
2023-04-22T11:26:08.946Z,12.23
2023-04-22T11:28:50.102Z,8.68
2023-04-22T11:31:30.845Z,8.60
2023-04-22T11:34:11.292Z,7.22
2023-04-22T11:36:52.753Z,13.23
2023-04-22T11:39:46.565Z,12.25
2023-04-22T11:42:26.290Z,8.63
2023-04-22T11:45:04.763Z,8.35
2023-04-22T11:47:46.518Z,7.45
2023-04-22T11:50:27.464Z,9.45
2023-04-22T11:53:18.189Z,13.73
2023-04-22T11:55:53.625Z,10.80
2023-04-22T11:58:37.836Z,15.50
2023-04-22T12:01:21.138Z,12.07
2023-04-22T12:04:04.148Z,9.82
2023-04-22T12:06:41.291Z,8.07
2023-04-22T12:09:14.148Z,11.07
2023-04-22T12:12:01.419Z,13.77
2023-04-22T12:14:45.835Z,8.70
2023-04-22T12:17:27.083Z,12.13
2023-04-22T12:20:05.457Z,5.47
2023-04-22T12:22:43.237Z,9.23
2023-04-22T12:25:22.936Z,8.93
2023-04-22T12:28:03.855Z,9.43
2023-04-22T12:30:45.616Z,7.38
2023-04-22T12:33:16.471Z,10.20
2023-04-22T12:36:01.985Z,7.82
2023-04-22T12:38:32.083Z,12.32
2023-04-22T12:41:12.427Z,8.90
2023-04-22T12:43:50.205Z,7.97
2023-04-22T12:46:34.037Z,7.80
2023-04-22T12:51:50.041Z,9.75
2023-04-22T12:54:24.062Z,6.80
2023-04-22T12:56:59.724Z,9.32
2023-04-22T12:59:40.930Z,7.43
2023-04-22T13:02:24.702Z,7.00
2023-04-22T13:04:56.967Z,8.45
2023-04-22T13:07:31.585Z,12.85
2023-04-22T13:10:08.487Z,7.35
2023-04-22T13:12:51.832Z,7.00
2023-04-22T13:15:30.158Z,6.10
2023-04-22T13:18:08.030Z,9.95
2023-04-22T13:20:45.704Z,6.90
2023-04-22T13:23:22.098Z,11.32
2023-04-22T13:26:05.393Z,7.47
2023-04-22T13:28:38.146Z,6.30
2023-04-22T13:31:16.417Z,9.37
2023-04-22T13:33:53.915Z,11.57
2023-04-22T13:36:29.374Z,9.52
2023-04-22T13:39:03.605Z,12.27
2023-04-22T13:41:41.379Z,6.57
2023-04-22T13:44:27.704Z,10.48
2023-04-22T13:49:32.864Z,6.30
2023-04-22T13:52:08.492Z,9.50
2023-04-22T13:54:59.687Z,8.25
2023-04-22T13:57:42.291Z,9.95
2023-04-22T14:00:22.828Z,8.07
2023-04-22T14:03:00.487Z,11.10
2023-04-22T14:05:38.759Z,10.70
2023-04-22T14:08:14.339Z,14.82
2023-04-22T14:10:46.662Z,8.48
2023-04-22T14:13:19.804Z,11.73
2023-04-22T14:16:12.764Z,8.77
2023-04-22T14:18:51.493Z,15.23
2023-04-22T14:21:28.115Z,16.60
2023-04-22T14:24:07.394Z,10.43
2023-04-22T14:26:45.064Z,9.18
2023-04-22T14:29:20.555Z,11.05
2023-04-22T14:32:03.751Z,8.90
2023-04-22T14:34:42.520Z,6.38
2023-04-22T14:37:21.875Z,9.38
2023-04-22T14:40:01.608Z,8.85
2023-04-22T14:42:36.544Z,7.80
2023-04-22T14:45:22.837Z,8.32
2023-04-22T14:47:58.425Z,9.55
2023-04-22T14:50:35.584Z,13.45
2023-04-22T14:53:11.458Z,9.57
2023-04-22T14:55:48.903Z,11.45
2023-04-22T14:58:27.194Z,6.93
2023-04-22T15:01:00.348Z,9.63
2023-04-22T15:03:36.384Z,12.05
2023-04-22T15:06:11.693Z,8.00
2023-04-22T15:08:51.937Z,12.65
2023-04-22T15:11:38.015Z,9.48
2023-04-22T15:14:18.382Z,7.03
2023-04-22T15:16:58.451Z,8.35
2023-04-22T15:19:37.420Z,6.30
2023-04-22T15:22:35.098Z,10.98
2023-04-22T15:25:16.769Z,7.90
2023-04-22T15:28:00.848Z,9.55
2023-04-22T15:30:44.495Z,9.05
2023-04-22T15:33:24.782Z,7.63
2023-04-22T15:36:05.363Z,9.48
2023-04-22T15:38:40.102Z,8.90
2023-04-22T15:41:18.950Z,9.55
2023-04-22T15:43:55.459Z,12.23
2023-04-22T15:46:40.293Z,11.65
2023-04-22T15:49:24.391Z,6.70
2023-04-22T15:52:02.595Z,7.47
2023-04-22T15:54:38.453Z,6.45
2023-04-22T15:57:17.578Z,7.47
2023-04-22T15:59:51.465Z,13.70
2023-04-22T16:02:34.195Z,8.90
2023-04-22T16:05:12.633Z,15.90
2023-04-22T16:07:55.905Z,8.40
2023-04-22T16:10:33.396Z,9.00
2023-04-22T16:13:06.228Z,7.78
2023-04-22T16:15:45.529Z,18.97
2023-04-22T16:18:26.680Z,10.05
2023-04-22T16:21:00.690Z,12.65
2023-04-22T16:23:38.456Z,18.23
2023-04-22T16:26:22.285Z,16.20
2023-04-22T16:29:13.208Z,8.43
2023-04-22T16:31:51.493Z,16.52
2023-04-22T16:34:21.722Z,7.65
2023-04-22T16:36:56.937Z,11.35
2023-04-22T16:39:35.625Z,9.40
2023-04-22T16:42:21.881Z,20.38
2023-04-22T16:45:02.395Z,32.47
2023-04-22T16:47:38.207Z,30.20
2023-04-22T16:50:17.368Z,27.50
2023-04-22T16:52:53.834Z,30.63
2023-04-22T16:55:32.825Z,22.85
2023-04-22T16:58:17.357Z,19.35
2023-04-22T17:00:55.437Z,21.52
2023-04-22T17:03:30.795Z,12.32
2023-04-22T17:06:08.763Z,12.70
2023-04-22T17:08:44.471Z,19.85
2023-04-22T17:11:20.489Z,24.55
2023-04-22T17:13:58.311Z,26.55
2023-04-22T17:16:41.791Z,122.22
2023-04-22T17:19:32.804Z,79.15
2023-04-22T17:22:09.501Z,38.22
2023-04-22T17:24:53.947Z,26.60
2023-04-22T17:27:31.677Z,40.08
2023-04-22T17:30:18.497Z,46.78
2023-04-22T17:32:59.865Z,41.53
2023-04-22T17:35:40.561Z,42.83
2023-04-22T17:38:23.757Z,49.65
2023-04-22T17:41:05.306Z,26.67
2023-04-22T17:43:43.741Z,32.58
2023-04-22T17:46:25.158Z,21.25
2023-04-22T17:49:05.939Z,28.58
2023-04-22T17:51:47.464Z,18.90
2023-04-22T17:54:27.864Z,17.60
2023-04-22T17:57:09.481Z,14.82
2023-04-22T17:59:47.197Z,26.17
2023-04-22T18:02:18.968Z,18.48
2023-04-22T18:04:59.806Z,16.45
2023-04-22T18:07:45.290Z,17.35
2023-04-22T18:10:32.252Z,15.15
2023-04-22T18:13:11.808Z,17.40
2023-04-22T18:15:50.077Z,15.90
2023-04-22T18:18:33.624Z,31.52
2023-04-22T18:21:11.366Z,38.75
2023-04-22T18:23:47.312Z,27.58
2023-04-22T18:26:52.405Z,28.05
2023-04-22T18:29:41.550Z,32.28
2023-04-22T18:32:23.818Z,42.05
2023-04-22T18:35:21.067Z,46.42
2023-04-22T18:38:05.420Z,45.22
2023-04-22T18:40:41.430Z,43.47
2023-04-22T18:43:14.014Z,41.38
2023-04-22T18:45:51.791Z,39.22
2023-04-22T18:48:33.126Z,40.72
2023-04-22T18:51:13.666Z,41.42
2023-04-22T18:53:53.721Z,46.20
2023-04-22T18:56:36.469Z,32.42
2023-04-22T18:59:14.866Z,35.95
2023-04-22T19:01:55.892Z,31.33
2023-04-22T19:04:34.618Z,32.10
2023-04-22T19:07:16.628Z,39.05
2023-04-22T19:09:47.447Z,30.58
2023-04-22T19:12:28.233Z,36.47
2023-04-22T19:15:08.906Z,30.43
2023-04-22T19:17:49.786Z,36.05
2023-04-22T19:20:24.872Z,30.10
2023-04-22T19:23:04.292Z,36.55
2023-04-22T19:25:45.086Z,36.28
2023-04-22T19:28:26.108Z,33.15
2023-04-22T19:31:07.441Z,40.00
2023-04-22T19:33:40.307Z,42.03
2023-04-22T19:36:12.517Z,36.93
2023-04-22T19:38:46.521Z,37.65
2023-04-22T19:41:21.902Z,34.33
2023-04-22T19:43:59.823Z,43.00
2023-04-22T19:46:43.759Z,39.05
2023-04-22T19:49:17.706Z,37.97
2023-04-22T19:51:56.823Z,29.85
2023-04-22T19:54:39.645Z,27.63
2023-04-22T19:57:15.413Z,29.35
2023-04-22T19:59:51.120Z,29.88
2023-04-22T20:02:24.033Z,28.67
2023-04-22T20:05:07.852Z,30.70
2023-04-22T20:07:51.400Z,29.10
2023-04-22T20:10:29.373Z,27.25
2023-04-22T20:13:04.015Z,23.98
2023-04-22T20:15:45.784Z,24.13
2023-04-22T20:18:17.958Z,25.48
2023-04-22T20:20:57.345Z,25.23
2023-04-22T20:23:34.908Z,25.40
2023-04-22T20:26:10.697Z,25.42
2023-04-22T20:28:58.093Z,20.95
2023-04-22T20:31:38.304Z,35.92
2023-04-22T20:34:15.712Z,20.50
2023-04-22T20:36:56.081Z,19.80
2023-04-22T20:39:37.748Z,19.52
2023-04-22T20:42:16.954Z,26.80
2023-04-22T20:44:57.657Z,20.70
2023-04-22T20:47:32.676Z,22.23
2023-04-22T20:50:11.098Z,23.08
2023-04-22T20:52:54.528Z,16.73
2023-04-22T20:55:31.643Z,13.88
2023-04-22T20:58:18.428Z,18.83
2023-04-22T21:00:56.009Z,17.42
2023-04-22T21:03:40.041Z,20.10
2023-04-22T21:06:13.073Z,17.17
2023-04-22T21:08:55.310Z,15.48
2023-04-22T21:11:38.627Z,16.55
2023-04-22T21:14:21.934Z,15.40
2023-04-22T21:17:05.324Z,28.65
2023-04-22T21:19:48.289Z,25.52
2023-04-22T21:22:30.530Z,26.48
2023-04-22T21:25:16.748Z,26.17
2023-04-22T21:27:55.600Z,26.77
2023-04-22T21:30:35.218Z,24.90
2023-04-22T21:33:13.552Z,29.08
2023-04-22T21:35:49.370Z,25.50
2023-04-22T21:38:30.845Z,35.95
2023-04-22T21:41:12.086Z,35.47
2023-04-22T21:43:47.431Z,54.67
2023-04-22T21:46:24.439Z,33.17
2023-04-22T21:49:05.496Z,28.05
2023-04-22T21:51:46.877Z,26.88
2023-04-22T21:54:33.701Z,29.67
2023-04-22T21:57:09.138Z,19.60
2023-04-22T21:59:52.214Z,25.77
2023-04-22T22:02:29.141Z,20.00
2023-04-22T22:05:07.275Z,20.35
2023-04-22T22:07:45.777Z,18.20
2023-04-22T22:10:25.165Z,17.42
2023-04-22T22:13:03.557Z,18.80
2023-04-22T22:15:49.523Z,16.25
2023-04-22T22:18:28.334Z,16.17
2023-04-22T22:21:06.020Z,14.88
2023-04-22T22:23:51.343Z,21.85
2023-04-22T22:26:36.555Z,16.02
2023-04-22T22:29:18.604Z,21.65
2023-04-22T22:32:07.104Z,19.35
2023-04-22T22:34:43.983Z,18.98
2023-04-22T22:37:22.492Z,14.98
2023-04-22T22:40:19.273Z,12.93
2023-04-22T22:42:55.413Z,16.50
2023-04-22T22:45:34.501Z,16.50
2023-04-22T22:48:15.000Z,17.58
2023-04-22T22:50:53.303Z,27.25
2023-04-22T22:53:27.723Z,24.02
2023-04-22T22:56:06.683Z,16.70
2023-04-22T22:58:45.991Z,21.10
2023-04-22T23:01:30.866Z,21.83
2023-04-22T23:04:16.045Z,25.70
2023-04-22T23:06:55.347Z,20.17
2023-04-22T23:09:32.913Z,14.00
2023-04-22T23:12:19.489Z,15.90
2023-04-22T23:15:02.922Z,21.75
2023-04-22T23:17:52.742Z,17.13
2023-04-22T23:20:28.406Z,21.17
2023-04-22T23:23:13.123Z,18.60
2023-04-22T23:25:48.819Z,14.48
2023-04-22T23:28:29.539Z,16.63
2023-04-22T23:31:11.686Z,18.10
2023-04-22T23:33:50.850Z,17.52
2023-04-22T23:36:36.776Z,17.30
2023-04-22T23:39:24.056Z,20.38
2023-04-22T23:42:07.776Z,22.92
2023-04-22T23:44:51.869Z,21.60
2023-04-22T23:47:35.128Z,20.98
2023-04-22T23:50:21.749Z,25.15
2023-04-22T23:52:59.675Z,17.90
2023-04-22T23:55:43.682Z,19.27
2023-04-22T23:58:19.055Z,15.85
